sensor_id;sensor_type;location;lat;lon;timestamp;P1;durP1;ratioP1;P2;durP2;ratioP2
40737;SDS011;54759;48.094;-1.628;2023-07-31T00:00:18;0.90;;;0.70;;
40737;SDS011;54759;48.094;-1.628;2023-07-31T00:03:19;1.25;;;0.90;;
40737;SDS011;54759;48.094;-1.628;2023-07-31T00:06:23;1.33;;;1.00;;
40737;SDS011;54759;48.094;-1.628;2023-07-31T00:09:28;1.70;;;0.93;;
40737;SDS011;54759;48.094;-1.628;2023-07-31T00:12:30;1.50;;;0.90;;
40737;SDS011;54759;48.094;-1.628;2023-07-31T00:15:31;1.83;;;0.82;;
40737;SDS011;54759;48.094;-1.628;2023-07-31T00:18:33;1.30;;;0.80;;
40737;SDS011;54759;48.094;-1.628;2023-07-31T00:21:34;1.85;;;1.40;;
40737;SDS011;54759;48.094;-1.628;2023-07-31T00:24:36;1.67;;;1.00;;
40737;SDS011;54759;48.094;-1.628;2023-07-31T00:27:39;1.35;;;1.05;;
40737;SDS011;54759;48.094;-1.628;2023-07-31T00:30:45;2.03;;;0.80;;
40737;SDS011;54759;48.094;-1.628;2023-07-31T00:33:47;1.42;;;0.90;;
40737;SDS011;54759;48.094;-1.628;2023-07-31T00:36:50;1.98;;;1.10;;
40737;SDS011;54759;48.094;-1.628;2023-07-31T00:39:52;1.40;;;1.02;;
40737;SDS011;54759;48.094;-1.628;2023-07-31T00:42:55;1.42;;;1.10;;
40737;SDS011;54759;48.094;-1.628;2023-07-31T00:45:57;1.70;;;1.00;;
40737;SDS011;54759;48.094;-1.628;2023-07-31T00:49:00;2.30;;;1.13;;
40737;SDS011;54759;48.094;-1.628;2023-07-31T00:52:03;1.00;;;0.80;;
40737;SDS011;54759;48.094;-1.628;2023-07-31T00:55:12;2.08;;;1.10;;
40737;SDS011;54759;48.094;-1.628;2023-07-31T00:58:14;1.05;;;0.80;;
40737;SDS011;54759;48.094;-1.628;2023-07-31T01:01:16;1.60;;;1.20;;
40737;SDS011;54759;48.094;-1.628;2023-07-31T01:04:17;1.42;;;1.00;;
40737;SDS011;54759;48.094;-1.628;2023-07-31T01:07:21;1.70;;;1.10;;
40737;SDS011;54759;48.094;-1.628;2023-07-31T01:10:27;2.28;;;1.15;;
40737;SDS011;54759;48.094;-1.628;2023-07-31T01:13:36;2.28;;;1.25;;
40737;SDS011;54759;48.094;-1.628;2023-07-31T01:16:38;1.98;;;1.08;;
40737;SDS011;54759;48.094;-1.628;2023-07-31T01:19:45;3.75;;;1.27;;
40737;SDS011;54759;48.094;-1.628;2023-07-31T01:23:09;1.85;;;1.10;;
40737;SDS011;54759;48.094;-1.628;2023-07-31T01:26:29;1.88;;;1.17;;
40737;SDS011;54759;48.094;-1.628;2023-07-31T01:29:37;2.92;;;0.90;;
40737;SDS011;54759;48.094;-1.628;2023-07-31T01:32:47;1.45;;;0.95;;
40737;SDS011;54759;48.094;-1.628;2023-07-31T01:35:53;1.23;;;0.90;;
40737;SDS011;54759;48.094;-1.628;2023-07-31T01:38:58;1.65;;;1.30;;
40737;SDS011;54759;48.094;-1.628;2023-07-31T01:42:03;1.75;;;1.10;;
40737;SDS011;54759;48.094;-1.628;2023-07-31T01:45:05;1.40;;;1.02;;
40737;SDS011;54759;48.094;-1.628;2023-07-31T01:48:10;1.80;;;1.10;;
40737;SDS011;54759;48.094;-1.628;2023-07-31T01:51:12;1.58;;;0.98;;
40737;SDS011;54759;48.094;-1.628;2023-07-31T01:54:13;1.33;;;0.90;;
40737;SDS011;54759;48.094;-1.628;2023-07-31T01:57:16;1.17;;;0.85;;
40737;SDS011;54759;48.094;-1.628;2023-07-31T02:00:17;1.45;;;1.05;;
40737;SDS011;54759;48.094;-1.628;2023-07-31T02:03:19;1.35;;;1.00;;
40737;SDS011;54759;48.094;-1.628;2023-07-31T02:06:20;1.10;;;0.90;;
40737;SDS011;54759;48.094;-1.628;2023-07-31T02:09:23;1.30;;;1.00;;
40737;SDS011;54759;48.094;-1.628;2023-07-31T02:12:25;1.65;;;0.90;;
40737;SDS011;54759;48.094;-1.628;2023-07-31T02:15:31;1.20;;;0.90;;
40737;SDS011;54759;48.094;-1.628;2023-07-31T02:18:32;1.48;;;1.20;;
40737;SDS011;54759;48.094;-1.628;2023-07-31T02:21:35;1.48;;;0.90;;
40737;SDS011;54759;48.094;-1.628;2023-07-31T02:24:37;1.60;;;1.02;;
40737;SDS011;54759;48.094;-1.628;2023-07-31T02:27:39;1.23;;;0.95;;
40737;SDS011;54759;48.094;-1.628;2023-07-31T02:30:43;1.55;;;0.90;;
40737;SDS011;54759;48.094;-1.628;2023-07-31T02:33:46;2.20;;;1.38;;
40737;SDS011;54759;48.094;-1.628;2023-07-31T02:36:50;2.15;;;0.98;;
40737;SDS011;54759;48.094;-1.628;2023-07-31T02:39:52;2.15;;;0.98;;
40737;SDS011;54759;48.094;-1.628;2023-07-31T02:42:54;1.30;;;1.00;;
40737;SDS011;54759;48.094;-1.628;2023-07-31T02:45:56;1.40;;;1.13;;
40737;SDS011;54759;48.094;-1.628;2023-07-31T02:48:58;1.60;;;1.10;;
40737;SDS011;54759;48.094;-1.628;2023-07-31T02:52:00;1.10;;;0.90;;
40737;SDS011;54759;48.094;-1.628;2023-07-31T02:55:01;1.35;;;0.88;;
40737;SDS011;54759;48.094;-1.628;2023-07-31T02:58:04;1.40;;;1.00;;
40737;SDS011;54759;48.094;-1.628;2023-07-31T03:01:05;1.30;;;1.00;;
40737;SDS011;54759;48.094;-1.628;2023-07-31T03:04:07;1.35;;;0.98;;
40737;SDS011;54759;48.094;-1.628;2023-07-31T03:07:08;1.30;;;0.98;;
40737;SDS011;54759;48.094;-1.628;2023-07-31T03:10:10;1.60;;;1.10;;
40737;SDS011;54759;48.094;-1.628;2023-07-31T03:13:16;1.33;;;0.95;;
40737;SDS011;54759;48.094;-1.628;2023-07-31T03:16:17;1.00;;;0.85;;
40737;SDS011;54759;48.094;-1.628;2023-07-31T03:19:19;1.63;;;1.10;;
40737;SDS011;54759;48.094;-1.628;2023-07-31T03:22:21;1.35;;;0.80;;
40737;SDS011;54759;48.094;-1.628;2023-07-31T03:25:22;1.75;;;1.40;;
40737;SDS011;54759;48.094;-1.628;2023-07-31T03:28:25;1.35;;;1.00;;
40737;SDS011;54759;48.094;-1.628;2023-07-31T03:31:27;1.38;;;0.90;;
40737;SDS011;54759;48.094;-1.628;2023-07-31T03:34:29;1.10;;;0.90;;
40737;SDS011;54759;48.094;-1.628;2023-07-31T03:37:32;1.65;;;1.10;;
40737;SDS011;54759;48.094;-1.628;2023-07-31T03:40:41;1.50;;;0.98;;
40737;SDS011;54759;48.094;-1.628;2023-07-31T03:43:45;1.38;;;1.00;;
40737;SDS011;54759;48.094;-1.628;2023-07-31T03:46:47;1.10;;;0.80;;
40737;SDS011;54759;48.094;-1.628;2023-07-31T03:49:50;1.60;;;1.02;;
40737;SDS011;54759;48.094;-1.628;2023-07-31T03:52:52;1.20;;;0.80;;
40737;SDS011;54759;48.094;-1.628;2023-07-31T03:55:56;1.98;;;1.13;;
40737;SDS011;54759;48.094;-1.628;2023-07-31T03:58:58;1.38;;;1.02;;
40737;SDS011;54759;48.094;-1.628;2023-07-31T04:02:00;1.50;;;0.98;;
40737;SDS011;54759;48.094;-1.628;2023-07-31T04:05:02;0.90;;;0.80;;
40737;SDS011;54759;48.094;-1.628;2023-07-31T04:08:04;1.33;;;0.93;;
40737;SDS011;54759;48.094;-1.628;2023-07-31T04:11:05;1.67;;;1.02;;
40737;SDS011;54759;48.094;-1.628;2023-07-31T04:14:07;1.60;;;1.10;;
40737;SDS011;54759;48.094;-1.628;2023-07-31T04:17:09;0.75;;;0.68;;
40737;SDS011;54759;48.094;-1.628;2023-07-31T04:20:13;2.10;;;1.05;;
40737;SDS011;54759;48.094;-1.628;2023-07-31T04:23:14;1.35;;;1.20;;
40737;SDS011;54759;48.094;-1.628;2023-07-31T04:26:16;1.08;;;0.85;;
40737;SDS011;54759;48.094;-1.628;2023-07-31T04:29:18;1.55;;;0.95;;
40737;SDS011;54759;48.094;-1.628;2023-07-31T04:32:19;1.33;;;0.95;;
40737;SDS011;54759;48.094;-1.628;2023-07-31T04:35:21;1.00;;;0.85;;
40737;SDS011;54759;48.094;-1.628;2023-07-31T04:38:23;1.08;;;0.77;;
40737;SDS011;54759;48.094;-1.628;2023-07-31T04:41:25;1.25;;;0.80;;
40737;SDS011;54759;48.094;-1.628;2023-07-31T04:44:27;1.10;;;0.77;;
40737;SDS011;54759;48.094;-1.628;2023-07-31T04:47:28;1.30;;;0.90;;
40737;SDS011;54759;48.094;-1.628;2023-07-31T04:50:30;1.45;;;0.90;;
40737;SDS011;54759;48.094;-1.628;2023-07-31T04:53:33;1.88;;;1.00;;
40737;SDS011;54759;48.094;-1.628;2023-07-31T04:56:34;1.40;;;0.85;;
40737;SDS011;54759;48.094;-1.628;2023-07-31T04:59:36;1.85;;;1.20;;
40737;SDS011;54759;48.094;-1.628;2023-07-31T05:02:38;1.33;;;1.00;;
40737;SDS011;54759;48.094;-1.628;2023-07-31T05:05:39;1.35;;;0.90;;
40737;SDS011;54759;48.094;-1.628;2023-07-31T05:08:41;1.50;;;1.00;;
40737;SDS011;54759;48.094;-1.628;2023-07-31T05:14:46;1.50;;;0.88;;
40737;SDS011;54759;48.094;-1.628;2023-07-31T05:17:48;1.20;;;1.00;;
40737;SDS011;54759;48.094;-1.628;2023-07-31T05:20:49;1.55;;;0.90;;
40737;SDS011;54759;48.094;-1.628;2023-07-31T05:23:51;1.50;;;1.00;;
40737;SDS011;54759;48.094;-1.628;2023-07-31T05:29:54;1.27;;;0.80;;
40737;SDS011;54759;48.094;-1.628;2023-07-31T05:32:58;1.33;;;0.90;;
40737;SDS011;54759;48.094;-1.628;2023-07-31T05:36:00;1.17;;;0.85;;
40737;SDS011;54759;48.094;-1.628;2023-07-31T05:39:02;1.48;;;0.98;;
40737;SDS011;54759;48.094;-1.628;2023-07-31T05:42:07;1.48;;;0.90;;
40737;SDS011;54759;48.094;-1.628;2023-07-31T05:45:11;1.02;;;0.90;;
40737;SDS011;54759;48.094;-1.628;2023-07-31T05:48:14;1.70;;;1.10;;
40737;SDS011;54759;48.094;-1.628;2023-07-31T05:51:15;1.25;;;0.90;;
40737;SDS011;54759;48.094;-1.628;2023-07-31T05:54:17;1.45;;;0.80;;
40737;SDS011;54759;48.094;-1.628;2023-07-31T05:57:18;1.73;;;0.70;;
40737;SDS011;54759;48.094;-1.628;2023-07-31T06:00:21;1.75;;;0.73;;
40737;SDS011;54759;48.094;-1.628;2023-07-31T06:03:23;1.38;;;1.05;;
40737;SDS011;54759;48.094;-1.628;2023-07-31T06:06:25;1.33;;;0.95;;
40737;SDS011;54759;48.094;-1.628;2023-07-31T06:09:26;1.70;;;0.77;;
40737;SDS011;54759;48.094;-1.628;2023-07-31T06:12:28;1.35;;;0.77;;
40737;SDS011;54759;48.094;-1.628;2023-07-31T06:15:35;2.22;;;0.98;;
40737;SDS011;54759;48.094;-1.628;2023-07-31T06:18:36;1.13;;;0.73;;
40737;SDS011;54759;48.094;-1.628;2023-07-31T06:21:38;0.93;;;0.73;;
40737;SDS011;54759;48.094;-1.628;2023-07-31T06:24:39;1.67;;;1.08;;
40737;SDS011;54759;48.094;-1.628;2023-07-31T06:27:42;0.98;;;0.88;;
40737;SDS011;54759;48.094;-1.628;2023-07-31T06:30:44;1.42;;;0.90;;
40737;SDS011;54759;48.094;-1.628;2023-07-31T06:33:46;1.70;;;1.00;;
40737;SDS011;54759;48.094;-1.628;2023-07-31T06:36:47;1.83;;;0.98;;
40737;SDS011;54759;48.094;-1.628;2023-07-31T06:39:50;3.05;;;0.95;;
40737;SDS011;54759;48.094;-1.628;2023-07-31T06:42:54;1.75;;;1.00;;
40737;SDS011;54759;48.094;-1.628;2023-07-31T06:45:56;2.55;;;1.20;;
40737;SDS011;54759;48.094;-1.628;2023-07-31T06:48:58;1.70;;;0.95;;
40737;SDS011;54759;48.094;-1.628;2023-07-31T06:52:00;2.80;;;1.02;;
40737;SDS011;54759;48.094;-1.628;2023-07-31T06:55:02;2.15;;;1.30;;
40737;SDS011;54759;48.094;-1.628;2023-07-31T06:58:04;1.73;;;1.02;;
40737;SDS011;54759;48.094;-1.628;2023-07-31T07:01:07;1.45;;;1.15;;
40737;SDS011;54759;48.094;-1.628;2023-07-31T07:04:11;1.80;;;1.27;;
40737;SDS011;54759;48.094;-1.628;2023-07-31T07:07:14;3.88;;;0.93;;
40737;SDS011;54759;48.094;-1.628;2023-07-31T07:10:15;2.80;;;1.52;;
40737;SDS011;54759;48.094;-1.628;2023-07-31T07:13:17;3.28;;;1.10;;
40737;SDS011;54759;48.094;-1.628;2023-07-31T07:16:19;2.95;;;0.90;;
40737;SDS011;54759;48.094;-1.628;2023-07-31T07:19:21;2.88;;;1.13;;
40737;SDS011;54759;48.094;-1.628;2023-07-31T07:22:22;3.28;;;1.50;;
40737;SDS011;54759;48.094;-1.628;2023-07-31T07:25:26;3.70;;;1.50;;
40737;SDS011;54759;48.094;-1.628;2023-07-31T07:28:28;3.22;;;1.48;;
40737;SDS011;54759;48.094;-1.628;2023-07-31T07:31:31;3.45;;;1.70;;
40737;SDS011;54759;48.094;-1.628;2023-07-31T07:34:33;4.32;;;1.52;;
40737;SDS011;54759;48.094;-1.628;2023-07-31T07:37:36;5.47;;;2.15;;
40737;SDS011;54759;48.094;-1.628;2023-07-31T07:40:38;4.22;;;1.42;;
40737;SDS011;54759;48.094;-1.628;2023-07-31T07:43:42;3.53;;;1.75;;
40737;SDS011;54759;48.094;-1.628;2023-07-31T07:46:44;3.58;;;1.60;;
40737;SDS011;54759;48.094;-1.628;2023-07-31T07:49:46;2.42;;;1.20;;
40737;SDS011;54759;48.094;-1.628;2023-07-31T07:52:53;2.58;;;1.20;;
40737;SDS011;54759;48.094;-1.628;2023-07-31T07:55:55;2.42;;;1.30;;
40737;SDS011;54759;48.094;-1.628;2023-07-31T07:58:56;2.92;;;1.33;;
40737;SDS011;54759;48.094;-1.628;2023-07-31T08:09:55;3.42;;;1.25;;
40737;SDS011;54759;48.094;-1.628;2023-07-31T08:12:57;3.60;;;1.60;;
40737;SDS011;54759;48.094;-1.628;2023-07-31T08:15:59;1.67;;;1.38;;
40737;SDS011;54759;48.094;-1.628;2023-07-31T08:19:42;3.15;;;1.25;;
